createdAt,value
2018-03-19T00:02:11.285Z,92.23
2018-03-19T00:04:38.921Z,84.67
2018-03-19T00:07:06.589Z,65.80
2018-03-19T00:09:34.441Z,71.20
2018-03-19T00:12:02.121Z,67.67
2018-03-19T00:14:29.857Z,52.20
2018-03-19T00:16:58.666Z,51.33
2018-03-19T00:19:26.466Z,52.87
2018-03-19T00:21:54.069Z,49.57
2018-03-19T00:24:21.651Z,61.33
2018-03-19T00:26:49.223Z,60.73
2018-03-19T00:29:16.968Z,47.47
2018-03-19T00:31:45.073Z,25.17
2018-03-19T00:34:13.470Z,32.77
2018-03-19T00:36:58.589Z,32.17
2018-03-19T00:39:26.425Z,25.27
2018-03-19T00:41:54.320Z,29.87
2018-03-19T00:44:21.969Z,41.43
2018-03-19T00:46:49.697Z,32.33
2018-03-19T00:49:17.307Z,39.17
2018-03-19T00:51:44.961Z,27.60
2018-03-19T00:54:12.677Z,25.30
2018-03-19T00:56:40.466Z,20.17
2018-03-19T00:59:08.183Z,25.77
2018-03-19T01:01:36.513Z,24.80
2018-03-19T01:04:04.276Z,32.13
2018-03-19T01:06:31.997Z,22.33
2018-03-19T01:08:59.709Z,27.30
2018-03-19T01:11:27.542Z,22.37
2018-03-19T01:13:55.338Z,31.47
2018-03-19T01:16:23.226Z,25.67
2018-03-19T01:18:51.045Z,23.33
2018-03-19T01:21:18.737Z,31.63
2018-03-19T01:23:46.694Z,27.17
2018-03-19T01:26:14.254Z,32.10
2018-03-19T01:28:42.122Z,28.70
2018-03-19T01:31:09.990Z,23.20
2018-03-19T01:33:37.589Z,37.13
2018-03-19T01:36:05.176Z,27.33
2018-03-19T01:38:32.912Z,26.80
2018-03-19T01:41:00.631Z,26.77
2018-03-19T01:43:28.471Z,36.87
2018-03-19T01:45:56.154Z,27.73
2018-03-19T01:48:23.812Z,26.57
2018-03-19T01:50:51.395Z,24.07
2018-03-19T01:53:19.188Z,35.87
2018-03-19T01:56:04.502Z,59.37
2018-03-19T01:58:32.081Z,27.47
2018-03-19T02:00:59.728Z,35.23
2018-03-19T02:03:27.639Z,26.60
2018-03-19T02:05:56.027Z,28.53
2018-03-19T02:08:23.726Z,27.03
2018-03-19T02:10:51.602Z,33.27
2018-03-19T02:13:19.268Z,23.13
2018-03-19T02:15:46.813Z,23.50
2018-03-19T02:18:14.637Z,19.30
2018-03-19T02:20:42.397Z,24.17
2018-03-19T02:23:10.257Z,22.67
2018-03-19T02:25:55.434Z,27.10
2018-03-19T02:28:23.112Z,114.23
2018-03-19T02:30:50.854Z,43.07
2018-03-19T02:33:18.766Z,23.93
2018-03-19T02:35:46.436Z,24.23
2018-03-19T02:38:14.004Z,32.57
2018-03-19T02:40:41.754Z,42.87
2018-03-19T02:43:09.425Z,45.50
2018-03-19T02:45:37.050Z,31.63
2018-03-19T02:48:22.361Z,46.73
2018-03-19T02:50:50.025Z,22.40
2018-03-19T02:53:18.092Z,24.37
2018-03-19T02:55:45.803Z,23.17
2018-03-19T02:58:13.785Z,20.13
2018-03-19T03:00:41.569Z,22.80
2018-03-19T03:03:09.517Z,21.27
2018-03-19T03:05:37.152Z,19.07
2018-03-19T03:08:04.867Z,23.33
2018-03-19T03:10:32.780Z,20.10
2018-03-19T03:13:00.598Z,23.13
2018-03-19T03:15:28.355Z,23.47
2018-03-19T03:17:56.174Z,30.60
2018-03-19T03:20:24.196Z,27.47
2018-03-19T03:22:52.114Z,58.17
2018-03-19T03:25:19.971Z,34.83
2018-03-19T03:27:47.795Z,23.83
2018-03-19T03:30:15.436Z,29.87
2018-03-19T03:32:43.285Z,34.53
2018-03-19T03:35:10.845Z,29.53
2018-03-19T03:37:38.591Z,41.93
2018-03-19T03:40:06.181Z,55.93
2018-03-19T03:42:33.958Z,58.37
2018-03-19T03:45:01.510Z,39.70
2018-03-19T03:47:29.513Z,42.47
2018-03-19T03:49:57.965Z,24.13
2018-03-19T03:52:25.557Z,26.23
2018-03-19T03:54:53.137Z,41.63
2018-03-19T03:57:20.884Z,36.93
2018-03-19T03:59:48.758Z,40.77
2018-03-19T04:02:16.509Z,49.60
2018-03-19T04:04:45.140Z,31.33
2018-03-19T04:07:12.966Z,35.10
2018-03-19T04:09:40.550Z,32.27
2018-03-19T04:12:08.203Z,31.77
2018-03-19T04:14:35.801Z,31.03
2018-03-19T04:17:03.409Z,45.90
2018-03-19T04:19:30.982Z,62.17
2018-03-19T04:21:58.923Z,40.13
2018-03-19T04:24:26.503Z,100.57
2018-03-19T04:26:54.057Z,51.03
2018-03-19T04:29:21.626Z,47.20
2018-03-19T04:31:49.674Z,50.47
2018-03-19T04:34:17.338Z,63.97
2018-03-19T04:36:45.357Z,60.57
2018-03-19T04:39:13.605Z,57.43
2018-03-19T04:41:41.236Z,65.87
2018-03-19T04:44:08.949Z,46.07
2018-03-19T04:46:36.801Z,49.83
2018-03-19T04:49:04.357Z,88.10
2018-03-19T04:51:31.914Z,109.00
2018-03-19T04:53:59.836Z,115.07
2018-03-19T04:56:28.225Z,72.83
2018-03-19T04:58:55.798Z,109.77
2018-03-19T05:01:23.810Z,73.43
2018-03-19T05:03:51.491Z,57.47
2018-03-19T05:06:20.007Z,99.43
2018-03-19T05:08:47.674Z,61.07
2018-03-19T05:11:15.306Z,56.73
2018-03-19T05:13:42.945Z,71.37
2018-03-19T05:16:10.790Z,68.93
2018-03-19T05:18:38.459Z,42.63
2018-03-19T05:21:06.282Z,47.27
2018-03-19T05:23:34.183Z,38.60
2018-03-19T05:26:01.753Z,54.97
2018-03-19T05:28:29.313Z,42.47
2018-03-19T05:30:57.020Z,33.77
2018-03-19T05:33:24.599Z,32.73
2018-03-19T05:35:52.485Z,43.27
2018-03-19T05:38:20.077Z,30.60
2018-03-19T05:40:47.959Z,37.40
2018-03-19T05:43:15.516Z,28.67
2018-03-19T05:45:43.551Z,64.50
2018-03-19T05:48:11.235Z,55.40
2018-03-19T05:50:39.559Z,60.07
2018-03-19T05:53:07.533Z,44.47
2018-03-19T05:55:35.207Z,26.87
2018-03-19T05:58:02.764Z,50.43
2018-03-19T06:00:30.426Z,56.07
2018-03-19T06:02:58.055Z,34.53
2018-03-19T06:05:25.793Z,46.33
2018-03-19T06:07:53.381Z,31.77
2018-03-19T06:10:21.181Z,53.33
2018-03-19T06:12:49.066Z,44.60
2018-03-19T06:15:17.518Z,52.13
2018-03-19T06:17:45.238Z,34.37
2018-03-19T06:20:12.820Z,40.30
2018-03-19T06:22:40.781Z,36.57
2018-03-19T06:25:08.609Z,28.87
2018-03-19T06:27:37.003Z,27.13
2018-03-19T06:30:04.630Z,24.53
2018-03-19T06:32:32.365Z,32.90
2018-03-19T06:35:00.034Z,55.07
2018-03-19T06:37:27.983Z,85.93
2018-03-19T06:39:55.552Z,53.67
2018-03-19T06:42:23.400Z,43.53
2018-03-19T06:44:51.002Z,39.80
2018-03-19T06:47:18.562Z,35.37
2018-03-19T06:49:47.244Z,38.50
2018-03-19T06:52:14.857Z,35.30
2018-03-19T06:54:42.406Z,50.87
2018-03-19T06:57:10.422Z,44.00
2018-03-19T06:59:38.259Z,29.83
2018-03-19T07:02:05.959Z,35.90
2018-03-19T07:04:34.282Z,26.73
2018-03-19T07:07:01.885Z,22.87
2018-03-19T07:09:29.429Z,23.80
2018-03-19T07:11:57.003Z,27.03
2018-03-19T07:14:24.628Z,27.70
2018-03-19T07:16:52.276Z,26.07
2018-03-19T07:19:20.174Z,34.83
2018-03-19T07:21:48.047Z,40.00
2018-03-19T07:24:15.599Z,27.17
2018-03-19T07:26:43.439Z,38.60
2018-03-19T07:29:11.197Z,45.03
2018-03-19T07:31:39.238Z,56.60
2018-03-19T07:34:06.789Z,32.13
2018-03-19T07:36:35.149Z,45.20
2018-03-19T07:39:02.702Z,34.83
2018-03-19T07:41:31.181Z,55.50
2018-03-19T07:43:58.794Z,34.57
2018-03-19T07:46:26.513Z,31.70
2018-03-19T07:48:55.118Z,37.83
2018-03-19T07:51:23.033Z,36.83
2018-03-19T07:53:50.644Z,35.97
2018-03-19T07:56:18.502Z,39.80
2018-03-19T07:58:46.098Z,75.80
2018-03-19T08:01:13.853Z,30.83
2018-03-19T08:03:41.429Z,31.07
2018-03-19T08:06:09.630Z,43.77
2018-03-19T08:08:37.273Z,33.67
2018-03-19T08:11:04.885Z,40.37
2018-03-19T08:13:32.473Z,29.97
2018-03-19T08:16:00.026Z,30.70
2018-03-19T08:18:27.585Z,25.67
2018-03-19T08:20:55.166Z,37.07
2018-03-19T08:23:22.719Z,41.33
2018-03-19T08:25:50.285Z,30.00
2018-03-19T08:28:18.361Z,35.23
2018-03-19T08:30:45.914Z,27.63
2018-03-19T08:33:13.851Z,34.40
2018-03-19T08:35:41.476Z,159.77
2018-03-19T08:38:09.081Z,40.03
2018-03-19T08:40:36.645Z,53.90
2018-03-19T08:43:04.249Z,47.63
2018-03-19T08:45:31.794Z,41.77
2018-03-19T08:48:00.158Z,39.20
2018-03-19T08:50:27.785Z,52.40
2018-03-19T08:52:55.523Z,47.17
2018-03-19T08:55:23.239Z,29.57
2018-03-19T08:57:50.894Z,65.53
2018-03-19T09:00:18.451Z,37.70
2018-03-19T09:02:46.002Z,33.97
2018-03-19T09:05:13.853Z,49.10
2018-03-19T09:07:41.409Z,48.37
2018-03-19T09:10:08.978Z,47.20
2018-03-19T09:12:36.584Z,28.83
2018-03-19T09:15:04.147Z,27.53
2018-03-19T09:17:32.547Z,28.37
2018-03-19T09:20:00.802Z,25.13
2018-03-19T09:22:28.353Z,40.80
2018-03-19T09:24:56.951Z,34.07
2018-03-19T09:27:24.541Z,22.77
2018-03-19T09:29:52.473Z,26.37
2018-03-19T09:32:20.070Z,37.90
2018-03-19T09:34:47.901Z,38.03
2018-03-19T09:37:15.450Z,39.10
2018-03-19T09:39:43.180Z,36.43
2018-03-19T09:42:10.758Z,38.47
2018-03-19T09:44:38.443Z,39.10
2018-03-19T09:47:05.997Z,22.37
2018-03-19T09:49:33.650Z,31.03
2018-03-19T09:52:01.967Z,29.80
2018-03-19T09:54:29.697Z,29.67
2018-03-19T09:56:57.590Z,30.40
2018-03-19T09:59:25.965Z,24.37
2018-03-19T10:01:53.766Z,26.93
2018-03-19T10:04:21.419Z,30.07
2018-03-19T10:06:49.087Z,31.97
2018-03-19T10:09:16.634Z,24.90
2018-03-19T10:11:44.595Z,25.80
2018-03-19T10:14:12.469Z,31.27
2018-03-19T10:16:40.102Z,46.30
2018-03-19T10:19:07.699Z,28.00
2018-03-19T10:21:35.254Z,34.80
2018-03-19T10:24:03.084Z,30.23
2018-03-19T10:26:30.913Z,33.10
2018-03-19T10:28:58.487Z,26.93
2018-03-19T10:31:26.298Z,28.83
2018-03-19T10:33:53.886Z,60.43
2018-03-19T10:36:21.441Z,55.73
2018-03-19T10:38:49.754Z,53.33
2018-03-19T10:41:17.337Z,40.27
2018-03-19T10:43:45.226Z,20.67
2018-03-19T10:46:12.770Z,24.90
2018-03-19T10:48:40.364Z,45.83
2018-03-19T10:51:08.683Z,42.90
2018-03-19T10:53:36.240Z,37.03
2018-03-19T10:56:03.828Z,32.90
2018-03-19T10:58:31.542Z,37.73
2018-03-19T11:01:05.366Z,30.67
2018-03-19T11:03:33.073Z,29.07
2018-03-19T11:06:06.456Z,36.43
2018-03-19T11:08:34.818Z,26.20
2018-03-19T11:11:02.542Z,69.60
2018-03-19T11:13:30.133Z,36.73
2018-03-19T11:15:58.050Z,63.83
2018-03-19T11:18:25.983Z,26.43
2018-03-19T11:20:53.577Z,26.40
2018-03-19T11:23:21.250Z,29.97
2018-03-19T11:25:48.798Z,29.13
2018-03-19T11:28:17.278Z,30.43
2018-03-19T11:30:45.863Z,28.67
2018-03-19T11:33:13.546Z,30.87
2018-03-19T11:35:41.164Z,32.13
2018-03-19T11:38:08.906Z,41.70
2018-03-19T11:40:37.257Z,42.00
2018-03-19T11:43:05.034Z,35.03
2018-03-19T11:45:32.603Z,31.90
2018-03-19T11:48:00.154Z,30.97
2018-03-19T11:50:27.766Z,43.80
2018-03-19T11:52:56.279Z,66.93
2018-03-19T11:55:23.858Z,110.17
2018-03-19T11:57:51.455Z,76.07
2018-03-19T12:00:20.107Z,58.63
2018-03-19T12:02:47.681Z,38.57
2018-03-19T12:05:15.630Z,42.07
2018-03-19T12:07:43.618Z,41.23
2018-03-19T12:10:11.935Z,31.53
2018-03-19T12:12:39.677Z,43.23
2018-03-19T12:15:08.059Z,47.20
2018-03-19T12:17:35.645Z,56.20
2018-03-19T12:20:03.234Z,35.47
2018-03-19T12:22:30.790Z,40.70
2018-03-19T12:24:58.393Z,69.93
2018-03-19T12:27:25.982Z,33.07
2018-03-19T12:29:53.835Z,45.77
2018-03-19T12:32:21.403Z,38.27
2018-03-19T12:34:49.601Z,36.57
2018-03-19T12:37:17.159Z,29.03
2018-03-19T12:39:44.716Z,36.37
2018-03-19T12:42:12.365Z,48.00
2018-03-19T12:44:39.914Z,51.47
2018-03-19T12:47:07.646Z,43.60
2018-03-19T12:49:35.230Z,35.43
2018-03-19T12:52:02.778Z,42.43
2018-03-19T12:54:30.322Z,51.20
2018-03-19T12:56:57.981Z,44.57
2018-03-19T12:59:25.527Z,52.97
2018-03-19T13:01:53.334Z,51.47
2018-03-19T13:04:21.138Z,56.30
2018-03-19T13:06:49.051Z,91.53
2018-03-19T13:09:16.607Z,89.43
2018-03-19T13:11:44.195Z,54.07
2018-03-19T13:14:11.757Z,58.10
2018-03-19T13:16:39.431Z,92.47
2018-03-19T13:19:07.026Z,90.27
2018-03-19T13:21:34.578Z,186.87
2018-03-19T13:24:02.147Z,84.73
2018-03-19T13:26:29.741Z,80.17
2018-03-19T13:28:57.393Z,318.27
2018-03-19T13:31:25.255Z,59.70
2018-03-19T13:33:52.843Z,45.33
2018-03-19T13:36:20.787Z,37.53
2018-03-19T13:38:48.451Z,39.23
2018-03-19T13:41:16.282Z,35.47
2018-03-19T13:43:43.992Z,51.27
2018-03-19T13:46:11.718Z,37.40
2018-03-19T13:48:39.304Z,35.90
2018-03-19T13:51:07.094Z,164.77
2018-03-19T13:53:34.657Z,118.57
2018-03-19T13:56:03.023Z,183.67
2018-03-19T13:58:30.579Z,93.30
2018-03-19T14:00:58.144Z,219.17
2018-03-19T14:03:25.843Z,198.47
2018-03-19T14:05:53.402Z,143.70
2018-03-19T14:08:21.077Z,143.87
2018-03-19T14:10:49.068Z,116.40
2018-03-19T14:13:16.711Z,90.17
2018-03-19T14:15:44.544Z,65.40
2018-03-19T14:18:13.370Z,70.27
2018-03-19T14:20:41.251Z,45.47
2018-03-19T14:23:08.819Z,49.63
2018-03-19T14:25:36.782Z,45.13
2018-03-19T14:28:04.449Z,79.87
2018-03-19T14:30:32.165Z,105.17
2018-03-19T14:33:00.194Z,81.57
2018-03-19T14:35:27.756Z,52.30
2018-03-19T14:37:55.505Z,51.60
2018-03-19T14:40:23.447Z,53.30
2018-03-19T14:42:51.045Z,47.83
2018-03-19T14:45:19.400Z,88.87
2018-03-19T14:47:47.535Z,54.10
2018-03-19T14:50:15.467Z,57.27
2018-03-19T14:52:43.933Z,66.33
2018-03-19T14:55:11.944Z,265.03
2018-03-19T14:57:39.867Z,63.87
2018-03-19T15:00:08.248Z,63.43
2018-03-19T15:02:35.856Z,76.60
2018-03-19T15:05:03.671Z,68.37
2018-03-19T15:07:31.249Z,76.00
2018-03-19T15:09:58.966Z,71.03
2018-03-19T15:12:26.879Z,52.07
2018-03-19T15:14:55.249Z,53.37
2018-03-19T15:17:22.992Z,72.33
2018-03-19T15:19:50.653Z,64.10
2018-03-19T15:22:18.689Z,154.23
2018-03-19T15:24:46.285Z,54.87
2018-03-19T15:27:13.874Z,79.37
2018-03-19T15:29:42.366Z,71.50
2018-03-19T15:32:10.461Z,51.47
2018-03-19T15:34:38.227Z,409.93
2018-03-19T15:37:05.809Z,136.20
2018-03-19T15:39:33.625Z,121.37
2018-03-19T15:42:01.190Z,127.93
2018-03-19T15:44:29.066Z,430.03
2018-03-19T15:46:57.245Z,522.50
2018-03-19T15:49:24.973Z,308.80
2018-03-19T15:51:52.658Z,792.37
2018-03-19T15:54:20.428Z,580.43
2018-03-19T15:56:47.999Z,200.27
2018-03-19T15:59:15.839Z,506.87
2018-03-19T16:01:44.146Z,209.80
2018-03-19T16:04:11.982Z,126.60
2018-03-19T16:06:39.862Z,96.03
2018-03-19T16:09:07.481Z,223.13
2018-03-19T16:11:35.176Z,225.97
2018-03-19T16:14:02.837Z,299.13
2018-03-19T16:16:30.703Z,293.53
2018-03-19T16:18:58.678Z,296.03
2018-03-19T16:21:26.435Z,148.07
2018-03-19T16:23:54.135Z,482.97
2018-03-19T16:26:22.383Z,194.70
2018-03-19T16:28:50.029Z,149.40
2018-03-19T16:31:17.955Z,269.03
2018-03-19T16:33:46.341Z,210.50
2018-03-19T16:36:13.912Z,101.83
2018-03-19T16:38:41.785Z,84.50
2018-03-19T16:41:09.756Z,99.33
2018-03-19T16:43:37.634Z,124.33
2018-03-19T16:46:05.302Z,298.40
2018-03-19T16:48:33.017Z,175.57
2018-03-19T16:51:01.639Z,479.70
2018-03-19T16:53:30.119Z,289.87
2018-03-19T16:55:58.205Z,245.77
2018-03-19T16:58:25.890Z,220.47
2018-03-19T17:00:53.820Z,151.90
2018-03-19T17:03:21.631Z,242.83
2018-03-19T17:05:50.147Z,169.30
2018-03-19T17:08:17.982Z,160.83
2018-03-19T17:10:46.775Z,171.87
2018-03-19T17:13:14.534Z,158.40
2018-03-19T17:15:43.161Z,121.23
2018-03-19T17:18:11.068Z,108.23
2018-03-19T17:20:38.921Z,107.97
2018-03-19T17:23:07.693Z,114.23
2018-03-19T17:25:35.883Z,110.63
2018-03-19T17:28:04.148Z,78.30
2018-03-19T17:30:32.459Z,116.97
2018-03-19T17:33:00.694Z,132.90
2018-03-19T17:35:28.746Z,89.70
2018-03-19T17:37:57.224Z,102.47
2018-03-19T17:40:25.193Z,92.97
2018-03-19T17:42:53.280Z,89.33
2018-03-19T17:45:20.925Z,111.30
2018-03-19T17:47:49.162Z,89.13
2018-03-19T17:50:17.055Z,92.17
2018-03-19T17:52:44.801Z,93.13
2018-03-19T17:55:12.895Z,115.00
2018-03-19T17:57:40.623Z,71.43
2018-03-19T18:00:08.946Z,65.13
2018-03-19T18:02:36.747Z,85.93
2018-03-19T18:05:04.307Z,65.20
2018-03-19T18:07:32.576Z,64.93
2018-03-19T18:10:00.211Z,81.63
2018-03-19T18:12:27.775Z,111.57
2018-03-19T18:14:55.648Z,72.27
2018-03-19T18:17:23.576Z,73.23
2018-03-19T18:19:51.171Z,60.57
2018-03-19T18:22:18.911Z,59.87
2018-03-19T18:24:46.496Z,76.63
2018-03-19T18:27:14.087Z,71.57
2018-03-19T18:29:41.706Z,62.37
2018-03-19T18:32:09.278Z,61.60
2018-03-19T18:34:36.836Z,106.67
2018-03-19T18:37:04.783Z,96.30
2018-03-19T18:39:32.535Z,116.17
2018-03-19T18:42:00.270Z,83.60
2018-03-19T18:44:28.059Z,86.70
2018-03-19T18:46:55.906Z,96.73
2018-03-19T18:49:23.538Z,59.90
2018-03-19T18:51:52.068Z,272.97
2018-03-19T18:54:19.627Z,99.87
2018-03-19T18:56:47.524Z,88.20
2018-03-19T18:59:15.656Z,72.00
2018-03-19T19:01:43.729Z,111.57
2018-03-19T19:04:12.318Z,138.83
2018-03-19T19:06:40.309Z,244.97
2018-03-19T19:09:08.287Z,125.27
2018-03-19T19:11:36.313Z,198.63
2018-03-19T19:14:04.412Z,157.93
2018-03-19T19:16:32.327Z,115.23
2018-03-19T19:19:00.208Z,111.67
2018-03-19T19:21:27.979Z,114.23
2018-03-19T19:23:55.679Z,238.00
2018-03-19T19:26:23.348Z,154.77
2018-03-19T19:28:51.213Z,144.40
2018-03-19T19:31:19.083Z,201.97
2018-03-19T19:33:47.769Z,290.40
2018-03-19T19:36:17.131Z,250.37
2018-03-19T19:38:44.733Z,138.93
2018-03-19T19:41:13.193Z,248.23
2018-03-19T19:43:41.072Z,201.77
2018-03-19T19:46:09.956Z,498.03
2018-03-19T19:48:37.627Z,419.93
2018-03-19T19:51:06.129Z,208.50
2018-03-19T19:53:33.981Z,115.40
2018-03-19T19:56:02.339Z,99.13
2018-03-19T19:58:30.952Z,292.03
2018-03-19T20:00:58.735Z,246.70
2018-03-19T20:03:26.811Z,134.40
2018-03-19T20:05:54.625Z,191.80
2018-03-19T20:08:22.329Z,174.13
2018-03-19T20:10:50.410Z,134.70
2018-03-19T20:13:18.615Z,162.53
2018-03-19T20:15:46.272Z,201.07
2018-03-19T20:18:14.414Z,118.87
2018-03-19T20:20:42.392Z,195.80
2018-03-19T20:23:10.566Z,189.60
2018-03-19T20:25:38.231Z,158.83
2018-03-19T20:28:06.098Z,228.43
2018-03-19T20:30:33.992Z,249.47
2018-03-19T20:33:02.868Z,184.87
2018-03-19T20:35:30.905Z,167.97
2018-03-19T20:37:58.503Z,208.87
2018-03-19T20:40:26.231Z,102.90
2018-03-19T20:42:55.550Z,213.90
2018-03-19T20:45:23.957Z,198.10
2018-03-19T20:47:51.938Z,154.47
2018-03-19T20:50:21.577Z,367.33
2018-03-19T20:52:49.734Z,393.07
2018-03-19T20:55:19.012Z,405.87
2018-03-19T20:57:47.760Z,687.53
2018-03-19T21:00:15.678Z,394.27
2018-03-19T21:02:43.417Z,228.47
2018-03-19T21:05:11.842Z,179.03
2018-03-19T21:07:39.504Z,334.67
2018-03-19T21:10:07.375Z,107.93
2018-03-19T21:12:35.257Z,205.30
2018-03-19T21:15:03.510Z,164.73
2018-03-19T21:17:31.398Z,156.03
2018-03-19T21:19:59.110Z,232.10
2018-03-19T21:22:26.690Z,229.60
2018-03-19T21:24:54.594Z,140.77
2018-03-19T21:27:22.812Z,288.07
2018-03-19T21:29:50.614Z,152.30
2018-03-19T21:32:18.823Z,366.30
2018-03-19T21:34:46.848Z,193.90
2018-03-19T21:37:14.616Z,125.90
2018-03-19T21:39:42.232Z,159.30
2018-03-19T21:42:10.677Z,225.93
2018-03-19T21:44:38.763Z,118.53
2018-03-19T21:47:07.255Z,145.57
2018-03-19T21:49:35.717Z,176.10
2018-03-19T21:52:03.381Z,198.40
2018-03-19T21:54:31.031Z,157.60
2018-03-19T21:56:58.688Z,171.40
2018-03-19T21:59:26.356Z,212.63
2018-03-19T22:01:54.323Z,279.20
2018-03-19T22:04:22.083Z,104.13
2018-03-19T22:06:49.644Z,81.73
2018-03-19T22:09:17.353Z,62.70
2018-03-19T22:11:45.131Z,112.83
2018-03-19T22:14:12.689Z,95.70
2018-03-19T22:16:40.244Z,145.73
2018-03-19T22:19:07.895Z,194.07
2018-03-19T22:21:35.894Z,135.53
2018-03-19T22:24:03.462Z,151.33
2018-03-19T22:26:31.208Z,123.20
2018-03-19T22:28:59.350Z,159.13
2018-03-19T22:31:27.369Z,136.83
2018-03-19T22:33:54.964Z,136.43
2018-03-19T22:36:22.643Z,152.27
2018-03-19T22:38:50.210Z,97.97
2018-03-19T22:41:17.792Z,130.93
2018-03-19T22:43:45.490Z,128.77
2018-03-19T22:46:13.855Z,85.20
2018-03-19T22:48:41.822Z,109.80
2018-03-19T22:51:09.626Z,67.17
2018-03-19T22:53:37.185Z,67.40
2018-03-19T22:56:04.788Z,66.63
2018-03-19T22:58:32.438Z,69.33
2018-03-19T23:01:00.009Z,96.13
2018-03-19T23:03:28.074Z,95.50
2018-03-19T23:05:55.629Z,70.60
2018-03-19T23:08:23.505Z,103.47
2018-03-19T23:10:51.108Z,84.43
2018-03-19T23:13:18.653Z,71.17
2018-03-19T23:15:46.973Z,76.50
2018-03-19T23:18:14.813Z,73.47
2018-03-19T23:20:42.625Z,90.43
2018-03-19T23:23:10.192Z,87.47
2018-03-19T23:25:38.123Z,87.07
2018-03-19T23:28:05.681Z,113.63
2018-03-19T23:30:33.487Z,120.93
2018-03-19T23:33:01.370Z,96.10
2018-03-19T23:35:29.969Z,70.93
2018-03-19T23:37:57.662Z,72.23
2018-03-19T23:40:25.267Z,96.47
2018-03-19T23:42:52.953Z,99.60
2018-03-19T23:45:20.501Z,89.20
2018-03-19T23:47:49.141Z,120.10
2018-03-19T23:50:16.718Z,109.03
2018-03-19T23:52:44.634Z,73.27
2018-03-19T23:55:12.307Z,76.13
2018-03-19T23:57:39.977Z,69.60
